Concord Farragut, Tennessee
Current Conditions -  °F | °C
As of 9:53 PM on Monday 22 Dec 2014 (Local Time) from KTYS Reporting Station
Light Rain Light Rain  
Wind Chill: 47°   Ceiling: 6500
Heat Index: 49°   Visibility: 10mi
Dew Point: 45°   Wind: 6mph
Humidity: 86%   Direction: 270°W
Pressure: 29.82"   Gusts: NA
Location:  35.9637°N, 83.9157°W
Report Text: KTYS 230253Z 27005KT 10SM -RA OVC065 09/07 A2982 RMK AO2 RAB11 SLP098 P0001 60001 T00940072 56007
Loading
Personal Weather Stations






























Interactive Weather Map New forecast layout! Learn more

10-Day Weather Forecast

Advertisements
Track Severe Weather on mobile